createdAt,value
2023-02-02T00:01:40.359Z,5.10
2023-02-02T00:04:07.626Z,5.10
2023-02-02T00:06:34.490Z,5.10
2023-02-02T00:09:03.136Z,5.20
2023-02-02T00:11:29.912Z,5.20
2023-02-02T00:13:56.911Z,5.30
2023-02-02T00:16:26.656Z,5.30
2023-02-02T00:18:54.691Z,5.40
2023-02-02T00:21:21.736Z,5.40
2023-02-02T00:23:48.527Z,5.40
2023-02-02T00:26:16.073Z,5.40
2023-02-02T00:28:43.061Z,5.50
2023-02-02T00:33:56.911Z,5.40
2023-02-02T00:39:14.366Z,5.50
2023-02-02T00:44:27.828Z,5.40
2023-02-02T00:49:41.321Z,5.40
2023-02-02T00:52:08.078Z,5.50
2023-02-02T00:54:34.830Z,5.50
2023-02-02T00:57:01.558Z,5.50
2023-02-02T00:59:28.308Z,5.50
2023-02-02T01:01:55.103Z,5.40
2023-02-02T01:04:21.891Z,5.40
2023-02-02T01:06:48.652Z,5.40
2023-02-02T01:09:15.390Z,5.40
2023-02-02T01:11:42.146Z,5.40
2023-02-02T01:14:09.075Z,5.40
2023-02-02T01:19:22.658Z,5.40
2023-02-02T01:24:36.109Z,5.50
2023-02-02T01:27:02.927Z,5.40
2023-02-02T01:29:29.711Z,5.40
2023-02-02T01:31:56.548Z,5.40
2023-02-02T01:34:23.739Z,5.40
2023-02-02T01:36:50.503Z,5.40
2023-02-02T01:39:17.316Z,5.40
2023-02-02T01:41:44.276Z,5.30
2023-02-02T01:44:48.875Z,5.30
2023-02-02T01:47:15.796Z,5.30
2023-02-02T01:49:42.632Z,5.20
2023-02-02T01:52:10.122Z,5.10
2023-02-02T01:54:41.948Z,5.10
2023-02-02T02:00:23.991Z,5.20
2023-02-02T02:02:53.696Z,5.10
2023-02-02T02:05:26.642Z,5.10
2023-02-02T02:08:00.663Z,5.10
2023-02-02T02:10:27.436Z,5.10
2023-02-02T02:12:54.247Z,5.10
2023-02-02T02:15:22.301Z,5.10
2023-02-02T02:18:06.616Z,5.10
2023-02-02T02:23:47.086Z,5.10
2023-02-02T02:26:41.880Z,5.10
2023-02-02T02:29:30.259Z,5.00
2023-02-02T02:32:12.091Z,5.00
2023-02-02T02:34:59.172Z,5.00
2023-02-02T02:37:39.695Z,5.00
2023-02-02T02:40:29.489Z,4.90
2023-02-02T02:45:48.025Z,4.80
2023-02-02T02:48:14.925Z,4.80
2023-02-02T02:50:41.918Z,4.70
2023-02-02T02:53:14.215Z,4.70
2023-02-02T02:55:57.520Z,4.60
2023-02-02T02:59:19.389Z,4.50
2023-02-02T03:05:25.029Z,4.40
2023-02-02T03:08:07.925Z,4.40
2023-02-02T03:10:37.709Z,4.30
2023-02-02T03:13:09.106Z,4.30
2023-02-02T03:15:35.932Z,4.30
2023-02-02T03:18:02.755Z,4.20
2023-02-02T03:20:29.597Z,4.20
2023-02-02T03:22:56.331Z,4.30
2023-02-02T03:25:23.457Z,4.20
2023-02-02T03:27:51.193Z,4.20
2023-02-02T03:30:18.255Z,4.30
2023-02-02T03:32:46.144Z,4.30
2023-02-02T03:35:12.963Z,4.30
2023-02-02T03:37:39.716Z,4.40
2023-02-02T03:40:07.278Z,4.50
2023-02-02T03:42:34.025Z,4.50
2023-02-02T03:45:00.762Z,4.50
2023-02-02T03:47:31.619Z,4.50
2023-02-02T03:49:58.646Z,4.50
2023-02-02T03:52:25.962Z,4.40
2023-02-02T03:54:52.771Z,4.30
2023-02-02T03:57:19.522Z,4.40
2023-02-02T03:59:46.434Z,4.40
2023-02-02T04:02:13.209Z,4.40
2023-02-02T04:04:39.967Z,4.30
2023-02-02T04:07:06.730Z,4.30
2023-02-02T04:12:20.165Z,4.30
2023-02-02T04:17:33.592Z,4.40
2023-02-02T04:20:00.351Z,4.30
2023-02-02T04:22:27.566Z,4.20
2023-02-02T04:24:54.317Z,4.30
2023-02-02T04:27:21.193Z,4.30
2023-02-02T04:29:47.947Z,4.40
2023-02-02T04:32:15.955Z,4.40
2023-02-02T04:34:43.153Z,4.40
2023-02-02T04:37:10.823Z,4.40
2023-02-02T04:39:37.766Z,4.50
2023-02-02T04:42:04.769Z,4.40
2023-02-02T04:44:31.547Z,4.50
2023-02-02T04:46:58.336Z,4.60
2023-02-02T04:49:25.206Z,4.60
2023-02-02T04:51:51.969Z,4.60
2023-02-02T04:54:18.764Z,4.60
2023-02-02T04:56:45.560Z,4.60
2023-02-02T04:59:12.398Z,4.70
2023-02-02T05:01:39.727Z,4.70
2023-02-02T05:04:06.655Z,4.60
2023-02-02T05:06:33.482Z,4.60
2023-02-02T05:09:00.245Z,4.60
2023-02-02T05:11:27.207Z,4.70
2023-02-02T05:13:55.382Z,4.60
2023-02-02T05:16:23.856Z,4.60
2023-02-02T05:18:55.624Z,4.60
2023-02-02T05:21:23.033Z,4.70
2023-02-02T05:23:49.882Z,4.70
2023-02-02T05:26:26.862Z,4.70
2023-02-02T05:28:53.982Z,4.70
2023-02-02T05:31:20.908Z,4.70
2023-02-02T05:33:47.783Z,4.70
2023-02-02T05:36:14.609Z,4.70
2023-02-02T05:38:41.409Z,4.70
2023-02-02T05:41:08.210Z,4.70
2023-02-02T05:43:35.297Z,4.80
2023-02-02T05:46:02.507Z,4.70
2023-02-02T05:48:29.516Z,4.70
2023-02-02T05:51:21.800Z,4.70
2023-02-02T05:53:48.595Z,4.70
2023-02-02T05:56:15.802Z,4.70
2023-02-02T05:58:43.491Z,4.70
2023-02-02T06:01:10.334Z,4.70
2023-02-02T06:03:37.294Z,4.70
2023-02-02T06:06:06.656Z,4.70
2023-02-02T06:08:34.191Z,4.60
2023-02-02T06:11:08.467Z,4.50
2023-02-02T06:13:35.269Z,4.50
2023-02-02T06:18:28.709Z,4.40
2023-02-02T06:21:00.090Z,4.30
2023-02-02T06:26:17.874Z,4.20
2023-02-02T06:28:49.854Z,4.20
2023-02-02T06:31:16.852Z,4.10
2023-02-02T06:33:43.706Z,4.10
2023-02-02T06:38:57.705Z,4.10
2023-02-02T06:44:12.705Z,4.10
2023-02-02T06:49:29.790Z,4.00
2023-02-02T06:54:43.224Z,4.00
2023-02-02T06:57:10.003Z,3.90
2023-02-02T06:59:36.868Z,3.90
2023-02-02T07:02:03.664Z,4.00
2023-02-02T07:04:30.508Z,3.90
2023-02-02T07:06:57.281Z,3.90
2023-02-02T07:09:24.019Z,4.00
2023-02-02T07:11:50.796Z,4.00
2023-02-02T07:14:17.567Z,4.10
2023-02-02T07:19:31.027Z,4.10
2023-02-02T07:24:45.211Z,4.20
2023-02-02T07:29:59.212Z,4.20
2023-02-02T07:32:26.015Z,4.20
2023-02-02T07:34:52.791Z,4.20
2023-02-02T07:37:19.622Z,4.20
2023-02-02T07:39:46.356Z,4.20
2023-02-02T07:42:13.553Z,4.30
2023-02-02T07:44:40.313Z,4.30
2023-02-02T07:47:07.103Z,4.30
2023-02-02T07:49:33.865Z,4.30
2023-02-02T07:54:47.286Z,4.50
2023-02-02T07:57:16.360Z,4.50
2023-02-02T07:59:43.204Z,4.40
2023-02-02T08:02:10.534Z,4.30
2023-02-02T08:04:37.327Z,4.20
2023-02-02T08:09:30.766Z,4.20
2023-02-02T08:11:57.493Z,4.10
2023-02-02T08:16:50.956Z,4.00
2023-02-02T08:19:17.738Z,4.20
2023-02-02T08:21:44.590Z,5.20
2023-02-02T08:24:11.353Z,4.90
2023-02-02T08:26:38.257Z,4.90
2023-02-02T08:29:07.924Z,4.80
2023-02-02T08:31:37.363Z,5.50
2023-02-02T08:34:04.776Z,6.90
2023-02-02T08:36:32.244Z,7.50
2023-02-02T08:39:06.875Z,7.30
2023-02-02T08:41:33.772Z,8.00
2023-02-02T08:46:47.401Z,8.80
2023-02-02T08:49:14.808Z,8.50
2023-02-02T08:51:41.704Z,7.40
2023-02-02T08:54:08.480Z,6.90
2023-02-02T08:56:35.600Z,6.60
2023-02-02T08:59:02.384Z,7.40
2023-02-02T09:01:31.241Z,7.50
2023-02-02T09:04:03.913Z,7.70
2023-02-02T09:06:39.430Z,7.40
2023-02-02T09:09:09.645Z,7.50
2023-02-02T09:14:23.389Z,7.10
2023-02-02T09:16:50.223Z,7.40
2023-02-02T09:19:17.026Z,7.10
2023-02-02T09:21:43.825Z,6.70
2023-02-02T09:24:13.389Z,6.10
2023-02-02T09:26:40.718Z,5.80
2023-02-02T09:29:11.086Z,5.70
2023-02-02T09:31:38.105Z,5.20
2023-02-02T09:34:09.937Z,5.10
2023-02-02T09:36:38.869Z,5.00
2023-02-02T09:42:37.343Z,4.70
2023-02-02T09:45:25.995Z,4.50
2023-02-02T09:48:05.770Z,4.50
2023-02-02T09:53:54.702Z,4.40
2023-02-02T09:56:27.078Z,4.50
2023-02-02T09:58:55.417Z,4.60
2023-02-02T10:01:31.756Z,4.60
2023-02-02T10:04:13.688Z,4.90
2023-02-02T10:06:46.111Z,5.60
2023-02-02T10:09:30.910Z,6.20
2023-02-02T10:12:35.998Z,6.70
2023-02-02T10:15:28.442Z,7.20
2023-02-02T10:18:05.573Z,7.70
2023-02-02T10:20:49.008Z,8.10
2023-02-02T10:23:21.484Z,8.80
2023-02-02T10:26:16.243Z,8.90
2023-02-02T10:32:20.408Z,9.70
2023-02-02T10:35:13.841Z,9.90
2023-02-02T10:37:57.079Z,9.50
2023-02-02T10:46:53.386Z,9.00
2023-02-02T10:49:38.164Z,8.20
2023-02-02T10:52:10.946Z,8.30
2023-02-02T10:54:56.002Z,8.10
2023-02-02T11:00:32.669Z,7.70
2023-02-02T11:02:59.466Z,7.50
2023-02-02T11:05:29.008Z,7.20
2023-02-02T11:07:55.913Z,6.90
2023-02-02T11:10:22.983Z,7.00
2023-02-02T11:12:51.735Z,7.10
2023-02-02T11:15:28.047Z,7.70
2023-02-02T11:20:42.280Z,9.10
2023-02-02T11:23:18.355Z,9.00
2023-02-02T11:25:45.188Z,9.30
2023-02-02T11:28:24.519Z,9.40
2023-02-02T11:30:52.940Z,9.40
2023-02-02T11:33:34.624Z,9.30
2023-02-02T11:36:17.697Z,9.10
2023-02-02T11:38:44.480Z,8.70
2023-02-02T11:43:59.030Z,8.40
2023-02-02T11:46:30.801Z,8.50
2023-02-02T11:49:03.752Z,8.40
2023-02-02T11:51:31.791Z,8.40
2023-02-02T11:54:15.603Z,8.30
2023-02-02T11:56:43.259Z,8.60
2023-02-02T11:59:33.003Z,8.70
2023-02-02T12:02:26.137Z,8.70
2023-02-02T12:05:09.943Z,8.20
2023-02-02T12:07:38.813Z,8.30
2023-02-02T12:10:24.447Z,8.60
2023-02-02T12:13:23.737Z,8.50
2023-02-02T12:16:09.279Z,8.40
2023-02-02T12:18:54.254Z,9.10
2023-02-02T12:21:33.883Z,8.50
2023-02-02T12:24:09.602Z,8.80
2023-02-02T12:32:42.771Z,9.70
2023-02-02T12:35:19.970Z,9.80
2023-02-02T12:38:25.050Z,10.80
2023-02-02T12:41:15.624Z,10.70
2023-02-02T12:43:47.290Z,11.70
2023-02-02T12:46:24.149Z,11.90
2023-02-02T12:49:15.015Z,12.20
2023-02-02T12:51:53.509Z,12.70
2023-02-02T12:54:54.237Z,12.20
2023-02-02T12:57:34.807Z,12.70
2023-02-02T13:00:17.599Z,12.80
2023-02-02T13:03:06.090Z,13.10
2023-02-02T13:05:52.327Z,13.20
2023-02-02T13:08:26.403Z,13.30
2023-02-02T13:13:47.155Z,12.00
2023-02-02T13:19:06.825Z,12.30
2023-02-02T13:24:31.680Z,11.70
2023-02-02T13:27:02.448Z,11.80
2023-02-02T13:29:47.561Z,11.40
2023-02-02T13:32:34.816Z,11.40
2023-02-02T13:38:29.940Z,11.80
2023-02-02T13:41:00.817Z,11.70
2023-02-02T13:43:39.558Z,11.30
2023-02-02T13:46:25.505Z,11.40
2023-02-02T13:49:06.019Z,11.40
2023-02-02T13:51:55.834Z,10.90
2023-02-02T13:54:52.719Z,10.80
2023-02-02T13:58:01.125Z,10.60
2023-02-02T14:00:57.314Z,10.40
2023-02-02T14:03:43.124Z,9.50
2023-02-02T14:09:02.571Z,9.30
2023-02-02T14:11:31.395Z,8.90
2023-02-02T14:14:08.460Z,8.70
2023-02-02T14:16:35.201Z,8.70
2023-02-02T14:19:03.837Z,8.50
2023-02-02T14:21:33.694Z,8.40
2023-02-02T14:24:01.271Z,8.30
2023-02-02T14:26:49.071Z,8.20
2023-02-02T14:29:27.969Z,8.20
2023-02-02T14:31:57.009Z,8.00
2023-02-02T14:34:36.577Z,7.90
2023-02-02T14:37:15.588Z,7.90
2023-02-02T14:40:08.631Z,7.80
2023-02-02T14:42:59.702Z,7.70
2023-02-02T14:45:38.133Z,7.70
2023-02-02T14:48:23.745Z,7.60
2023-02-02T14:50:54.675Z,7.50
2023-02-02T14:56:48.556Z,7.20
2023-02-02T14:59:24.022Z,7.30
2023-02-02T15:02:45.875Z,7.30
2023-02-02T15:05:30.792Z,7.20
2023-02-02T15:08:27.440Z,7.20
2023-02-02T15:11:03.739Z,7.10
2023-02-02T15:13:36.351Z,7.00
2023-02-02T15:16:22.421Z,6.90
2023-02-02T15:18:59.403Z,6.80
2023-02-02T15:21:27.656Z,6.70
2023-02-02T15:23:55.788Z,6.60
2023-02-02T15:29:35.310Z,6.40
2023-02-02T15:32:05.589Z,6.30
2023-02-02T15:34:46.837Z,6.20
2023-02-02T15:37:22.717Z,6.10
2023-02-02T15:39:54.672Z,6.00
2023-02-02T15:42:28.298Z,5.90
2023-02-02T15:47:30.157Z,5.70
2023-02-02T15:49:57.045Z,5.60
2023-02-02T15:52:27.915Z,5.50
2023-02-02T15:54:56.630Z,5.40
2023-02-02T15:57:26.917Z,5.20
2023-02-02T15:59:53.719Z,5.10
2023-02-02T16:02:30.409Z,5.00
2023-02-02T16:04:57.211Z,4.90
2023-02-02T16:07:33.413Z,4.80
2023-02-02T16:10:05.422Z,4.70
2023-02-02T16:12:32.733Z,4.60
2023-02-02T16:15:00.617Z,4.50
2023-02-02T16:17:32.422Z,4.40
2023-02-02T16:20:05.695Z,4.30
2023-02-02T16:22:32.884Z,4.20
2023-02-02T16:25:03.115Z,4.10
2023-02-02T16:27:31.440Z,4.10
2023-02-02T16:30:01.887Z,3.90
2023-02-02T16:35:35.422Z,3.70
2023-02-02T16:38:23.240Z,3.60
2023-02-02T16:43:47.654Z,3.40
2023-02-02T16:49:02.759Z,3.40
2023-02-02T16:54:20.507Z,3.20
2023-02-02T16:56:52.832Z,3.10
2023-02-02T16:59:25.008Z,3.00
2023-02-02T17:02:02.706Z,3.00
2023-02-02T17:07:21.301Z,2.80
2023-02-02T17:09:48.969Z,2.80
2023-02-02T17:12:31.549Z,2.70
2023-02-02T17:15:02.799Z,2.70
2023-02-02T17:17:29.621Z,2.60
2023-02-02T17:19:56.508Z,2.60
2023-02-02T17:22:26.113Z,2.40
2023-02-02T17:24:53.233Z,2.40
2023-02-02T17:30:19.591Z,2.20
2023-02-02T17:35:17.388Z,2.20
2023-02-02T17:37:44.181Z,2.10
2023-02-02T17:43:02.567Z,2.10
2023-02-02T17:48:22.162Z,2.00
2023-02-02T17:50:49.607Z,2.00
2023-02-02T17:53:20.115Z,1.90
2023-02-02T17:55:48.150Z,1.80
2023-02-02T17:58:15.645Z,1.80
2023-02-02T18:00:43.077Z,1.80
2023-02-02T18:03:26.622Z,1.70
2023-02-02T18:08:40.263Z,1.60
2023-02-02T18:11:07.118Z,1.50
2023-02-02T18:13:33.882Z,1.50
2023-02-02T18:16:00.766Z,1.50
2023-02-02T18:18:27.575Z,1.50
2023-02-02T18:20:54.342Z,1.50
2023-02-02T18:23:21.163Z,1.40
2023-02-02T18:25:47.993Z,1.40
2023-02-02T18:28:17.024Z,1.30
2023-02-02T18:30:45.390Z,1.40
2023-02-02T18:33:13.380Z,1.40
2023-02-02T18:35:44.836Z,1.30
2023-02-02T18:38:12.021Z,1.40
2023-02-02T18:40:38.820Z,1.40
2023-02-02T18:43:05.600Z,1.40
2023-02-02T18:45:32.424Z,1.50
2023-02-02T18:47:59.242Z,1.50
2023-02-02T18:50:26.002Z,1.40
2023-02-02T18:52:52.789Z,1.40
2023-02-02T18:55:19.611Z,1.50
2023-02-02T18:57:46.443Z,1.50
2023-02-02T19:00:13.740Z,1.60
2023-02-02T19:02:40.513Z,1.60
2023-02-02T19:07:54.208Z,1.60
2023-02-02T19:13:15.214Z,1.80
2023-02-02T19:15:42.431Z,1.90
2023-02-02T19:18:19.417Z,2.00
2023-02-02T19:20:46.933Z,2.00
2023-02-02T19:23:29.902Z,2.00
2023-02-02T19:25:56.816Z,2.10
2023-02-02T19:28:30.850Z,2.00
2023-02-02T19:31:00.021Z,2.10
2023-02-02T19:33:40.494Z,2.40
2023-02-02T19:36:24.951Z,2.40
2023-02-02T19:39:25.802Z,2.30
2023-02-02T19:44:43.390Z,2.40
2023-02-02T19:47:26.971Z,2.30
2023-02-02T19:49:53.772Z,2.50
2023-02-02T19:52:23.869Z,2.60
2023-02-02T19:54:52.173Z,2.60
2023-02-02T20:00:32.371Z,2.60
2023-02-02T20:05:52.652Z,2.60
2023-02-02T20:11:26.448Z,2.50
2023-02-02T20:13:53.188Z,2.60
2023-02-02T20:16:22.439Z,2.50
2023-02-02T20:21:40.733Z,2.60
2023-02-02T20:24:27.754Z,2.60
2023-02-02T20:26:58.563Z,2.70
2023-02-02T20:29:43.380Z,2.70
2023-02-02T20:32:26.749Z,2.70
2023-02-02T20:34:55.359Z,2.70
2023-02-02T20:37:42.338Z,2.70
2023-02-02T20:40:21.328Z,2.70
2023-02-02T20:42:48.803Z,2.50
2023-02-02T20:45:16.927Z,2.60
2023-02-02T20:47:46.748Z,2.60
2023-02-02T20:50:16.682Z,2.60
2023-02-02T20:55:30.568Z,2.70
2023-02-02T20:57:57.417Z,2.80
2023-02-02T21:00:24.540Z,2.70
2023-02-02T21:02:51.485Z,2.80
2023-02-02T21:05:18.359Z,2.80
2023-02-02T21:07:45.119Z,2.90
2023-02-02T21:10:11.903Z,2.80
2023-02-02T21:12:38.697Z,2.90
2023-02-02T21:17:52.979Z,3.00
2023-02-02T21:20:20.375Z,2.90
2023-02-02T21:22:47.183Z,3.00
2023-02-02T21:25:13.967Z,3.10
2023-02-02T21:27:40.736Z,3.10
2023-02-02T21:32:58.916Z,3.10
2023-02-02T21:38:15.394Z,3.10
2023-02-02T21:43:29.109Z,3.20
2023-02-02T21:48:42.655Z,3.20
2023-02-02T21:51:23.980Z,3.20
2023-02-02T21:53:51.723Z,3.20
2023-02-02T21:59:22.379Z,3.30
2023-02-02T22:04:38.030Z,3.30
2023-02-02T22:07:14.818Z,3.30
2023-02-02T22:09:44.314Z,3.30
2023-02-02T22:15:20.686Z,3.20
2023-02-02T22:17:47.760Z,3.20
2023-02-02T22:20:17.699Z,3.20
2023-02-02T22:22:45.255Z,3.20
2023-02-02T22:25:17.801Z,3.20
2023-02-02T22:27:51.384Z,3.20
2023-02-02T22:30:29.471Z,3.30
2023-02-02T22:32:56.712Z,3.30
2023-02-02T22:35:23.841Z,3.30
2023-02-02T22:37:50.657Z,3.30
2023-02-02T22:40:18.248Z,3.30
2023-02-02T22:42:44.993Z,3.30
2023-02-02T22:45:11.745Z,3.30
2023-02-02T22:47:38.490Z,3.30
2023-02-02T22:50:05.826Z,3.30
2023-02-02T22:52:32.617Z,3.40
2023-02-02T22:54:59.442Z,3.30
2023-02-02T22:57:26.201Z,3.40
2023-02-02T22:59:52.969Z,3.40
2023-02-02T23:02:19.734Z,3.40
2023-02-02T23:04:46.489Z,3.30
2023-02-02T23:07:13.299Z,3.30
2023-02-02T23:09:40.049Z,3.30
2023-02-02T23:12:06.983Z,3.30
2023-02-02T23:17:20.384Z,3.20
2023-02-02T23:22:33.849Z,3.20
2023-02-02T23:27:47.582Z,3.20
2023-02-02T23:30:15.149Z,3.10
2023-02-02T23:32:42.421Z,3.10
2023-02-02T23:35:10.954Z,3.10
2023-02-02T23:37:38.198Z,3.10
2023-02-02T23:40:05.993Z,3.10
2023-02-02T23:42:32.805Z,3.00
2023-02-02T23:44:59.841Z,2.90
2023-02-02T23:47:26.780Z,2.90
2023-02-02T23:49:53.606Z,2.80
2023-02-02T23:52:20.667Z,2.80
2023-02-02T23:54:47.670Z,2.80
2023-02-02T23:57:14.480Z,2.80
2023-02-02T23:59:41.252Z,2.80
